Offutt Air Force Base Omaha US
ICAO: KOFF
IATA: OFF
Category: Medium
Scheduled Services: No

Elevation: 1052 ft
TransAlt. 18000 ft.

Airport Communications:
OMAHA APP/DEP:118
ATIS:126.025
GND:121.7
PMSV METRO:22.74
COMD POST:31.1
PTD:37.94
TWR:123.7

KOFF Zoom In..

If you have problems with the map follow the link
https://www.worldairports.se/pages/airport.php?
ICAO=KOFF

Runways:

(A) RW 12 length 11702 ft width 150 ft
ILS 111.70 / hdg 124

(B) RW 30 length 11702 ft width 150 ft
ILS 109.50 / hdg 304

Location; KOFF
Day. 17 / Time. 19.21 Zulu
* Altimeter: 30.05
* Temperature: -02° c. -28.4°f.
* Wind from: 120° Speed 16 kn.
Dewpoint: -03° c.
Visibility: 2 m.
Clouds: Overcast 400 ft.
Conditions: Mist.

KOFF 171921Z 12016KT 2 3/4SM -FZDZ BR OVC004 M02/M03 A3005 RMK AO2A FZDZB21 SLP200 RVRNO $


Wind From 120°
Speed 16 kn.

 
 
jpsmedia worldairports.se 2020   terms of use